sensor_id;sensor_type;location;lat;lon;timestamp;P1;durP1;ratioP1;P2;durP2;ratioP2
45714;SDS011;31430;61.646;24.704;2022-07-29T00:00:45;3.88;;;3.58;;
45714;SDS011;31430;61.646;24.704;2022-07-29T00:03:11;3.92;;;3.63;;
45714;SDS011;31430;61.646;24.704;2022-07-29T00:08:06;4.35;;;4.05;;
45714;SDS011;31430;61.646;24.704;2022-07-29T00:10:32;3.88;;;3.58;;
45714;SDS011;31430;61.646;24.704;2022-07-29T00:12:59;3.97;;;3.67;;
45714;SDS011;31430;61.646;24.704;2022-07-29T00:15:24;3.85;;;3.55;;
45714;SDS011;31430;61.646;24.704;2022-07-29T00:17:50;3.80;;;3.50;;
45714;SDS011;31430;61.646;24.704;2022-07-29T00:20:16;3.72;;;3.42;;
45714;SDS011;31430;61.646;24.704;2022-07-29T00:22:41;3.80;;;3.50;;
45714;SDS011;31430;61.646;24.704;2022-07-29T00:25:07;3.80;;;3.50;;
45714;SDS011;31430;61.646;24.704;2022-07-29T00:27:34;3.80;;;3.50;;
45714;SDS011;31430;61.646;24.704;2022-07-29T00:30:01;3.85;;;3.55;;
45714;SDS011;31430;61.646;24.704;2022-07-29T00:32:28;3.85;;;3.55;;
45714;SDS011;31430;61.646;24.704;2022-07-29T00:34:54;3.80;;;3.50;;
45714;SDS011;31430;61.646;24.704;2022-07-29T00:37:38;3.88;;;3.58;;
45714;SDS011;31430;61.646;24.704;2022-07-29T00:40:04;4.00;;;3.70;;
45714;SDS011;31430;61.646;24.704;2022-07-29T00:42:30;3.85;;;3.55;;
45714;SDS011;31430;61.646;24.704;2022-07-29T00:44:56;3.95;;;3.65;;
45714;SDS011;31430;61.646;24.704;2022-07-29T00:47:21;4.35;;;4.05;;
45714;SDS011;31430;61.646;24.704;2022-07-29T00:49:47;4.05;;;3.75;;
45714;SDS011;31430;61.646;24.704;2022-07-29T00:52:13;3.92;;;3.63;;
45714;SDS011;31430;61.646;24.704;2022-07-29T00:54:39;3.88;;;3.58;;
45714;SDS011;31430;61.646;24.704;2022-07-29T00:57:08;3.97;;;3.67;;
45714;SDS011;31430;61.646;24.704;2022-07-29T00:59:34;3.95;;;3.65;;
45714;SDS011;31430;61.646;24.704;2022-07-29T01:02:00;4.03;;;3.72;;
45714;SDS011;31430;61.646;24.704;2022-07-29T01:04:26;4.18;;;3.88;;
45714;SDS011;31430;61.646;24.704;2022-07-29T01:06:52;4.22;;;3.92;;
45714;SDS011;31430;61.646;24.704;2022-07-29T01:09:18;3.92;;;3.63;;
45714;SDS011;31430;61.646;24.704;2022-07-29T01:11:44;3.95;;;3.65;;
45714;SDS011;31430;61.646;24.704;2022-07-29T01:14:12;4.18;;;3.88;;
45714;SDS011;31430;61.646;24.704;2022-07-29T01:16:44;3.92;;;3.63;;
45714;SDS011;31430;61.646;24.704;2022-07-29T01:22:14;4.03;;;3.72;;
45714;SDS011;31430;61.646;24.704;2022-07-29T01:30:30;4.00;;;3.70;;
45714;SDS011;31430;61.646;24.704;2022-07-29T01:33:02;3.97;;;3.67;;
45714;SDS011;31430;61.646;24.704;2022-07-29T01:35:34;4.00;;;3.70;;
45714;SDS011;31430;61.646;24.704;2022-07-29T01:38:17;4.35;;;4.05;;
45714;SDS011;31430;61.646;24.704;2022-07-29T01:40:51;4.28;;;3.97;;
45714;SDS011;31430;61.646;24.704;2022-07-29T01:43:39;4.38;;;4.07;;
45714;SDS011;31430;61.646;24.704;2022-07-29T01:46:09;4.50;;;4.20;;
45714;SDS011;31430;61.646;24.704;2022-07-29T01:49:00;3.97;;;3.67;;
45714;SDS011;31430;61.646;24.704;2022-07-29T01:51:35;4.05;;;3.75;;
45714;SDS011;31430;61.646;24.704;2022-07-29T01:56:43;4.15;;;3.85;;
45714;SDS011;31430;61.646;24.704;2022-07-29T01:59:12;4.38;;;4.07;;
45714;SDS011;31430;61.646;24.704;2022-07-29T02:04:04;4.55;;;4.25;;
45714;SDS011;31430;61.646;24.704;2022-07-29T02:06:33;4.45;;;4.15;;
45714;SDS011;31430;61.646;24.704;2022-07-29T02:09:02;4.03;;;3.72;;
45714;SDS011;31430;61.646;24.704;2022-07-29T02:11:31;4.32;;;4.03;;
45714;SDS011;31430;61.646;24.704;2022-07-29T02:14:00;3.92;;;3.63;;
45714;SDS011;31430;61.646;24.704;2022-07-29T02:16:26;3.92;;;3.63;;
45714;SDS011;31430;61.646;24.704;2022-07-29T02:18:55;4.32;;;4.03;;
45714;SDS011;31430;61.646;24.704;2022-07-29T02:21:23;3.92;;;3.63;;
45714;SDS011;31430;61.646;24.704;2022-07-29T02:23:51;3.95;;;3.65;;
45714;SDS011;31430;61.646;24.704;2022-07-29T02:26:20;4.10;;;3.80;;
45714;SDS011;31430;61.646;24.704;2022-07-29T02:28:48;4.22;;;3.92;;
45714;SDS011;31430;61.646;24.704;2022-07-29T02:31:16;3.90;;;3.60;;
45714;SDS011;31430;61.646;24.704;2022-07-29T02:33:45;3.83;;;3.53;;
45714;SDS011;31430;61.646;24.704;2022-07-29T02:36:12;3.83;;;3.53;;
45714;SDS011;31430;61.646;24.704;2022-07-29T02:41:28;4.20;;;3.90;;
45714;SDS011;31430;61.646;24.704;2022-07-29T02:44:13;4.10;;;3.80;;
45714;SDS011;31430;61.646;24.704;2022-07-29T02:46:53;4.10;;;3.80;;
45714;SDS011;31430;61.646;24.704;2022-07-29T02:54:41;4.13;;;3.83;;
45714;SDS011;31430;61.646;24.704;2022-07-29T02:57:22;4.30;;;4.00;;
45714;SDS011;31430;61.646;24.704;2022-07-29T03:00:04;4.15;;;3.85;;
45714;SDS011;31430;61.646;24.704;2022-07-29T03:02:38;4.15;;;3.85;;
45714;SDS011;31430;61.646;24.704;2022-07-29T03:05:08;3.83;;;3.53;;
45714;SDS011;31430;61.646;24.704;2022-07-29T03:07:36;4.35;;;4.05;;
45714;SDS011;31430;61.646;24.704;2022-07-29T03:10:05;3.90;;;3.60;;
45714;SDS011;31430;61.646;24.704;2022-07-29T03:12:33;3.80;;;3.50;;
45714;SDS011;31430;61.646;24.704;2022-07-29T03:15:00;3.97;;;3.67;;
45714;SDS011;31430;61.646;24.704;2022-07-29T03:17:26;4.20;;;3.90;;
45714;SDS011;31430;61.646;24.704;2022-07-29T03:19:52;3.75;;;3.45;;
45714;SDS011;31430;61.646;24.704;2022-07-29T03:22:19;3.95;;;3.65;;
45714;SDS011;31430;61.646;24.704;2022-07-29T03:24:45;4.13;;;3.83;;
45714;SDS011;31430;61.646;24.704;2022-07-29T03:27:11;4.00;;;3.70;;
45714;SDS011;31430;61.646;24.704;2022-07-29T03:29:36;4.30;;;4.00;;
45714;SDS011;31430;61.646;24.704;2022-07-29T03:32:03;3.88;;;3.58;;
45714;SDS011;31430;61.646;24.704;2022-07-29T03:34:29;3.88;;;3.58;;
45714;SDS011;31430;61.646;24.704;2022-07-29T03:36:55;4.03;;;3.72;;
45714;SDS011;31430;61.646;24.704;2022-07-29T03:39:21;4.05;;;3.75;;
45714;SDS011;31430;61.646;24.704;2022-07-29T03:41:52;3.85;;;3.55;;
45714;SDS011;31430;61.646;24.704;2022-07-29T03:44:21;3.88;;;3.58;;
45714;SDS011;31430;61.646;24.704;2022-07-29T03:46:48;3.88;;;3.58;;
45714;SDS011;31430;61.646;24.704;2022-07-29T03:49:15;3.83;;;3.53;;
45714;SDS011;31430;61.646;24.704;2022-07-29T03:51:44;4.35;;;4.05;;
45714;SDS011;31430;61.646;24.704;2022-07-29T03:54:09;3.95;;;3.65;;
45714;SDS011;31430;61.646;24.704;2022-07-29T03:59:11;4.47;;;4.18;;
45714;SDS011;31430;61.646;24.704;2022-07-29T04:01:38;4.15;;;3.85;;
45714;SDS011;31430;61.646;24.704;2022-07-29T04:04:05;4.03;;;3.72;;
45714;SDS011;31430;61.646;24.704;2022-07-29T04:06:37;3.92;;;3.63;;
45714;SDS011;31430;61.646;24.704;2022-07-29T04:09:04;4.45;;;4.15;;
45714;SDS011;31430;61.646;24.704;2022-07-29T04:11:30;4.13;;;3.83;;
45714;SDS011;31430;61.646;24.704;2022-07-29T04:13:55;3.92;;;3.63;;
45714;SDS011;31430;61.646;24.704;2022-07-29T04:16:21;4.22;;;3.92;;
45714;SDS011;31430;61.646;24.704;2022-07-29T04:18:47;4.20;;;3.90;;
45714;SDS011;31430;61.646;24.704;2022-07-29T04:21:12;3.95;;;3.65;;
45714;SDS011;31430;61.646;24.704;2022-07-29T04:23:38;4.03;;;3.72;;
45714;SDS011;31430;61.646;24.704;2022-07-29T04:26:03;4.00;;;3.70;;
45714;SDS011;31430;61.646;24.704;2022-07-29T04:28:29;3.90;;;3.60;;
45714;SDS011;31430;61.646;24.704;2022-07-29T04:30:55;4.03;;;3.72;;
45714;SDS011;31430;61.646;24.704;2022-07-29T04:33:20;3.97;;;3.67;;
45714;SDS011;31430;61.646;24.704;2022-07-29T04:35:46;4.07;;;3.78;;
45714;SDS011;31430;61.646;24.704;2022-07-29T04:38:11;3.85;;;3.55;;
45714;SDS011;31430;61.646;24.704;2022-07-29T04:40:37;3.95;;;3.65;;
45714;SDS011;31430;61.646;24.704;2022-07-29T04:43:03;4.13;;;3.83;;
45714;SDS011;31430;61.646;24.704;2022-07-29T04:45:29;3.80;;;3.50;;
45714;SDS011;31430;61.646;24.704;2022-07-29T04:47:55;3.80;;;3.50;;
45714;SDS011;31430;61.646;24.704;2022-07-29T04:50:20;3.72;;;3.42;;
45714;SDS011;31430;61.646;24.704;2022-07-29T04:55:12;3.83;;;3.53;;
45714;SDS011;31430;61.646;24.704;2022-07-29T04:57:38;3.80;;;3.50;;
45714;SDS011;31430;61.646;24.704;2022-07-29T05:00:04;3.70;;;3.40;;
45714;SDS011;31430;61.646;24.704;2022-07-29T05:02:30;3.67;;;3.38;;
45714;SDS011;31430;61.646;24.704;2022-07-29T05:04:56;3.75;;;3.45;;
45714;SDS011;31430;61.646;24.704;2022-07-29T05:07:22;3.65;;;3.35;;
45714;SDS011;31430;61.646;24.704;2022-07-29T05:09:47;4.07;;;3.78;;
45714;SDS011;31430;61.646;24.704;2022-07-29T05:12:13;3.95;;;3.65;;
45714;SDS011;31430;61.646;24.704;2022-07-29T05:14:39;3.58;;;3.28;;
45714;SDS011;31430;61.646;24.704;2022-07-29T05:17:04;3.65;;;3.35;;
45714;SDS011;31430;61.646;24.704;2022-07-29T05:19:30;3.80;;;3.50;;
45714;SDS011;31430;61.646;24.704;2022-07-29T05:21:56;3.72;;;3.42;;
45714;SDS011;31430;61.646;24.704;2022-07-29T05:24:22;3.85;;;3.55;;
45714;SDS011;31430;61.646;24.704;2022-07-29T05:26:48;3.67;;;3.38;;
45714;SDS011;31430;61.646;24.704;2022-07-29T05:29:13;3.55;;;3.25;;
45714;SDS011;31430;61.646;24.704;2022-07-29T05:31:39;3.67;;;3.38;;
45714;SDS011;31430;61.646;24.704;2022-07-29T05:34:04;3.53;;;3.22;;
45714;SDS011;31430;61.646;24.704;2022-07-29T05:36:30;3.63;;;3.33;;
45714;SDS011;31430;61.646;24.704;2022-07-29T05:38:56;4.07;;;3.78;;
45714;SDS011;31430;61.646;24.704;2022-07-29T05:43:48;3.95;;;3.65;;
45714;SDS011;31430;61.646;24.704;2022-07-29T05:46:13;3.53;;;3.22;;
45714;SDS011;31430;61.646;24.704;2022-07-29T05:48:39;3.63;;;3.33;;
45714;SDS011;31430;61.646;24.704;2022-07-29T05:51:05;3.78;;;3.47;;
45714;SDS011;31430;61.646;24.704;2022-07-29T05:53:30;3.55;;;3.25;;
45714;SDS011;31430;61.646;24.704;2022-07-29T05:55:56;3.67;;;3.38;;
45714;SDS011;31430;61.646;24.704;2022-07-29T05:58:22;3.60;;;3.30;;
45714;SDS011;31430;61.646;24.704;2022-07-29T06:00:48;3.70;;;3.40;;
45714;SDS011;31430;61.646;24.704;2022-07-29T06:03:13;3.58;;;3.28;;
45714;SDS011;31430;61.646;24.704;2022-07-29T06:05:39;3.67;;;3.38;;
45714;SDS011;31430;61.646;24.704;2022-07-29T06:08:05;3.70;;;3.40;;
45714;SDS011;31430;61.646;24.704;2022-07-29T06:10:32;3.55;;;3.25;;
45714;SDS011;31430;61.646;24.704;2022-07-29T06:12:59;3.80;;;3.50;;
45714;SDS011;31430;61.646;24.704;2022-07-29T06:15:25;3.58;;;3.28;;
45714;SDS011;31430;61.646;24.704;2022-07-29T06:17:51;3.88;;;3.58;;
45714;SDS011;31430;61.646;24.704;2022-07-29T06:20:17;3.38;;;3.13;;
45714;SDS011;31430;61.646;24.704;2022-07-29T06:22:43;3.65;;;3.35;;
45714;SDS011;31430;61.646;24.704;2022-07-29T06:25:09;3.45;;;3.17;;
45714;SDS011;31430;61.646;24.704;2022-07-29T06:27:34;3.40;;;3.13;;
45714;SDS011;31430;61.646;24.704;2022-07-29T06:30:00;3.35;;;3.13;;
45714;SDS011;31430;61.646;24.704;2022-07-29T06:32:26;3.47;;;3.17;;
45714;SDS011;31430;61.646;24.704;2022-07-29T06:34:52;3.47;;;3.17;;
45714;SDS011;31430;61.646;24.704;2022-07-29T06:37:18;3.55;;;3.25;;
45714;SDS011;31430;61.646;24.704;2022-07-29T06:39:44;3.35;;;3.13;;
45714;SDS011;31430;61.646;24.704;2022-07-29T06:42:09;3.42;;;3.13;;
45714;SDS011;31430;61.646;24.704;2022-07-29T06:44:35;3.58;;;3.28;;
45714;SDS011;31430;61.646;24.704;2022-07-29T06:47:01;3.38;;;3.10;;
45714;SDS011;31430;61.646;24.704;2022-07-29T06:49:27;3.20;;;3.00;;
45714;SDS011;31430;61.646;24.704;2022-07-29T06:51:53;3.38;;;3.10;;
45714;SDS011;31430;61.646;24.704;2022-07-29T06:54:19;3.15;;;2.95;;
45714;SDS011;31430;61.646;24.704;2022-07-29T06:56:45;3.17;;;2.97;;
45714;SDS011;31430;61.646;24.704;2022-07-29T06:59:11;3.25;;;3.05;;
45714;SDS011;31430;61.646;24.704;2022-07-29T07:01:38;3.10;;;2.90;;
45714;SDS011;31430;61.646;24.704;2022-07-29T07:04:05;3.65;;;3.35;;
45714;SDS011;31430;61.646;24.704;2022-07-29T07:06:33;3.33;;;3.08;;
45714;SDS011;31430;61.646;24.704;2022-07-29T07:08:59;3.25;;;3.05;;
45714;SDS011;31430;61.646;24.704;2022-07-29T07:11:25;3.30;;;3.08;;
45714;SDS011;31430;61.646;24.704;2022-07-29T07:13:50;3.50;;;3.20;;
45714;SDS011;31430;61.646;24.704;2022-07-29T07:16:16;3.40;;;3.13;;
45714;SDS011;31430;61.646;24.704;2022-07-29T07:18:42;3.17;;;2.97;;
45714;SDS011;31430;61.646;24.704;2022-07-29T07:21:10;3.33;;;3.10;;
45714;SDS011;31430;61.646;24.704;2022-07-29T07:23:35;3.50;;;3.20;;
45714;SDS011;31430;61.646;24.704;2022-07-29T07:26:01;3.20;;;3.00;;
45714;SDS011;31430;61.646;24.704;2022-07-29T07:28:28;3.17;;;2.97;;
45714;SDS011;31430;61.646;24.704;2022-07-29T07:33:19;3.40;;;3.13;;
45714;SDS011;31430;61.646;24.704;2022-07-29T07:35:45;3.13;;;2.92;;
45714;SDS011;31430;61.646;24.704;2022-07-29T07:40:37;3.20;;;3.00;;
45714;SDS011;31430;61.646;24.704;2022-07-29T07:43:03;3.25;;;3.05;;
45714;SDS011;31430;61.646;24.704;2022-07-29T07:45:28;3.45;;;3.15;;
45714;SDS011;31430;61.646;24.704;2022-07-29T07:47:54;3.40;;;3.13;;
45714;SDS011;31430;61.646;24.704;2022-07-29T07:50:20;3.13;;;2.92;;
45714;SDS011;31430;61.646;24.704;2022-07-29T07:52:49;3.38;;;3.13;;
45714;SDS011;31430;61.646;24.704;2022-07-29T07:55:17;3.55;;;3.25;;
45714;SDS011;31430;61.646;24.704;2022-07-29T07:57:43;3.38;;;3.10;;
45714;SDS011;31430;61.646;24.704;2022-07-29T08:02:35;3.47;;;3.17;;
45714;SDS011;31430;61.646;24.704;2022-07-29T08:05:00;3.58;;;3.28;;
45714;SDS011;31430;61.646;24.704;2022-07-29T08:07:26;3.33;;;3.10;;
45714;SDS011;31430;61.646;24.704;2022-07-29T08:09:52;3.15;;;2.95;;
45714;SDS011;31430;61.646;24.704;2022-07-29T08:12:17;3.15;;;2.95;;
45714;SDS011;31430;61.646;24.704;2022-07-29T08:14:43;3.22;;;3.03;;
45714;SDS011;31430;61.646;24.704;2022-07-29T08:17:09;3.08;;;2.88;;
45714;SDS011;31430;61.646;24.704;2022-07-29T08:19:34;3.15;;;2.95;;
45714;SDS011;31430;61.646;24.704;2022-07-29T08:22:01;3.08;;;2.88;;
45714;SDS011;31430;61.646;24.704;2022-07-29T08:24:27;3.10;;;2.90;;
45714;SDS011;31430;61.646;24.704;2022-07-29T08:27:08;3.20;;;3.00;;
45714;SDS011;31430;61.646;24.704;2022-07-29T08:29:35;3.55;;;3.25;;
45714;SDS011;31430;61.646;24.704;2022-07-29T08:34:26;3.22;;;3.03;;
45714;SDS011;31430;61.646;24.704;2022-07-29T08:36:52;3.47;;;3.17;;
45714;SDS011;31430;61.646;24.704;2022-07-29T08:39:18;3.40;;;3.13;;
45714;SDS011;31430;61.646;24.704;2022-07-29T08:41:43;3.38;;;3.10;;
45714;SDS011;31430;61.646;24.704;2022-07-29T08:44:09;3.40;;;3.10;;
45714;SDS011;31430;61.646;24.704;2022-07-29T08:46:37;3.25;;;3.05;;
45714;SDS011;31430;61.646;24.704;2022-07-29T08:49:04;3.22;;;3.03;;
45714;SDS011;31430;61.646;24.704;2022-07-29T08:51:30;3.22;;;3.03;;
45714;SDS011;31430;61.646;24.704;2022-07-29T08:53:58;3.22;;;3.03;;
45714;SDS011;31430;61.646;24.704;2022-07-29T08:56:24;3.33;;;3.10;;
45714;SDS011;31430;61.646;24.704;2022-07-29T08:58:50;3.38;;;3.10;;
45714;SDS011;31430;61.646;24.704;2022-07-29T09:01:17;3.22;;;3.03;;
45714;SDS011;31430;61.646;24.704;2022-07-29T09:03:46;3.15;;;2.95;;
45714;SDS011;31430;61.646;24.704;2022-07-29T09:06:13;3.20;;;3.00;;
45714;SDS011;31430;61.646;24.704;2022-07-29T09:08:40;3.25;;;3.05;;
45714;SDS011;31430;61.646;24.704;2022-07-29T09:13:32;3.45;;;3.15;;
45714;SDS011;31430;61.646;24.704;2022-07-29T09:15:59;3.20;;;3.00;;
45714;SDS011;31430;61.646;24.704;2022-07-29T09:18:34;3.22;;;3.03;;
45714;SDS011;31430;61.646;24.704;2022-07-29T09:21:12;3.17;;;2.97;;
45714;SDS011;31430;61.646;24.704;2022-07-29T09:24:08;3.20;;;3.00;;
45714;SDS011;31430;61.646;24.704;2022-07-29T09:26:36;3.65;;;3.35;;
45714;SDS011;31430;61.646;24.704;2022-07-29T09:29:11;3.45;;;3.15;;
45714;SDS011;31430;61.646;24.704;2022-07-29T09:31:44;3.58;;;3.28;;
45714;SDS011;31430;61.646;24.704;2022-07-29T09:34:12;3.30;;;3.08;;
45714;SDS011;31430;61.646;24.704;2022-07-29T09:39:13;3.42;;;3.13;;
45714;SDS011;31430;61.646;24.704;2022-07-29T09:41:49;3.33;;;3.10;;
45714;SDS011;31430;61.646;24.704;2022-07-29T09:44:20;3.50;;;3.20;;
45714;SDS011;31430;61.646;24.704;2022-07-29T09:47:03;3.33;;;3.10;;
45714;SDS011;31430;61.646;24.704;2022-07-29T09:49:35;3.28;;;3.05;;
45714;SDS011;31430;61.646;24.704;2022-07-29T09:52:14;3.08;;;2.88;;
45714;SDS011;31430;61.646;24.704;2022-07-29T09:54:40;3.35;;;3.10;;
45714;SDS011;31430;61.646;24.704;2022-07-29T09:57:06;3.17;;;2.97;;
45714;SDS011;31430;61.646;24.704;2022-07-29T09:59:37;3.15;;;2.95;;
45714;SDS011;31430;61.646;24.704;2022-07-29T10:02:10;3.55;;;3.25;;
45714;SDS011;31430;61.646;24.704;2022-07-29T10:04:38;3.25;;;3.05;;
45714;SDS011;31430;61.646;24.704;2022-07-29T10:07:07;3.20;;;3.00;;
45714;SDS011;31430;61.646;24.704;2022-07-29T10:09:34;3.53;;;3.22;;
45714;SDS011;31430;61.646;24.704;2022-07-29T10:14:32;3.45;;;3.15;;
45714;SDS011;31430;61.646;24.704;2022-07-29T10:17:02;3.30;;;3.08;;
45714;SDS011;31430;61.646;24.704;2022-07-29T10:19:29;3.35;;;3.10;;
45714;SDS011;31430;61.646;24.704;2022-07-29T10:21:57;3.28;;;3.08;;
45714;SDS011;31430;61.646;24.704;2022-07-29T10:24:24;3.50;;;3.20;;
45714;SDS011;31430;61.646;24.704;2022-07-29T10:26:57;3.22;;;3.03;;
45714;SDS011;31430;61.646;24.704;2022-07-29T10:29:25;3.20;;;3.00;;
45714;SDS011;31430;61.646;24.704;2022-07-29T10:40:00;3.50;;;3.20;;
45714;SDS011;31430;61.646;24.704;2022-07-29T10:43:14;3.28;;;3.08;;
45714;SDS011;31430;61.646;24.704;2022-07-29T10:45:47;3.53;;;3.22;;
45714;SDS011;31430;61.646;24.704;2022-07-29T10:48:14;3.25;;;3.05;;
45714;SDS011;31430;61.646;24.704;2022-07-29T10:50:53;3.25;;;3.05;;
45714;SDS011;31430;61.646;24.704;2022-07-29T10:53:22;3.70;;;3.40;;
45714;SDS011;31430;61.646;24.704;2022-07-29T10:55:48;3.17;;;2.97;;
45714;SDS011;31430;61.646;24.704;2022-07-29T10:58:19;3.25;;;3.05;;
45714;SDS011;31430;61.646;24.704;2022-07-29T11:00:48;3.33;;;3.08;;
45714;SDS011;31430;61.646;24.704;2022-07-29T11:06:10;3.15;;;2.95;;
45714;SDS011;31430;61.646;24.704;2022-07-29T11:08:36;3.17;;;2.97;;
45714;SDS011;31430;61.646;24.704;2022-07-29T11:13:52;3.53;;;3.22;;
45714;SDS011;31430;61.646;24.704;2022-07-29T11:16:20;3.25;;;3.05;;
45714;SDS011;31430;61.646;24.704;2022-07-29T11:21:39;3.13;;;2.92;;
45714;SDS011;31430;61.646;24.704;2022-07-29T11:24:12;3.13;;;2.92;;
45714;SDS011;31430;61.646;24.704;2022-07-29T11:26:38;3.42;;;3.15;;
45714;SDS011;31430;61.646;24.704;2022-07-29T11:29:21;3.15;;;2.95;;
45714;SDS011;31430;61.646;24.704;2022-07-29T11:31:50;3.22;;;3.03;;
45714;SDS011;31430;61.646;24.704;2022-07-29T11:34:20;3.10;;;2.90;;
45714;SDS011;31430;61.646;24.704;2022-07-29T11:47:38;3.13;;;2.92;;
45714;SDS011;31430;61.646;24.704;2022-07-29T11:50:06;3.13;;;2.92;;
45714;SDS011;31430;61.646;24.704;2022-07-29T11:52:38;3.17;;;2.97;;
45714;SDS011;31430;61.646;24.704;2022-07-29T11:55:09;3.00;;;2.80;;
45714;SDS011;31430;61.646;24.704;2022-07-29T11:57:38;3.17;;;2.97;;
45714;SDS011;31430;61.646;24.704;2022-07-29T12:00:34;3.22;;;3.03;;
45714;SDS011;31430;61.646;24.704;2022-07-29T12:03:05;3.22;;;3.03;;
45714;SDS011;31430;61.646;24.704;2022-07-29T12:05:37;3.10;;;2.90;;
45714;SDS011;31430;61.646;24.704;2022-07-29T12:08:05;3.15;;;2.95;;
45714;SDS011;31430;61.646;24.704;2022-07-29T12:10:31;3.28;;;3.08;;
45714;SDS011;31430;61.646;24.704;2022-07-29T12:12:57;3.30;;;3.08;;
45714;SDS011;31430;61.646;24.704;2022-07-29T12:15:22;3.13;;;2.92;;
45714;SDS011;31430;61.646;24.704;2022-07-29T12:17:50;3.10;;;2.90;;
45714;SDS011;31430;61.646;24.704;2022-07-29T12:20:22;3.03;;;2.83;;
45714;SDS011;31430;61.646;24.704;2022-07-29T12:22:53;3.15;;;2.95;;
45714;SDS011;31430;61.646;24.704;2022-07-29T12:25:20;3.00;;;2.80;;
45714;SDS011;31430;61.646;24.704;2022-07-29T12:27:56;3.15;;;2.95;;
45714;SDS011;31430;61.646;24.704;2022-07-29T12:30:23;3.17;;;2.97;;
45714;SDS011;31430;61.646;24.704;2022-07-29T12:33:15;3.08;;;2.88;;
45714;SDS011;31430;61.646;24.704;2022-07-29T12:35:44;3.22;;;3.03;;
45714;SDS011;31430;61.646;24.704;2022-07-29T12:38:12;3.00;;;2.80;;
45714;SDS011;31430;61.646;24.704;2022-07-29T12:40:38;3.03;;;2.83;;
45714;SDS011;31430;61.646;24.704;2022-07-29T12:43:05;3.00;;;2.80;;
45714;SDS011;31430;61.646;24.704;2022-07-29T12:45:32;3.00;;;2.80;;
45714;SDS011;31430;61.646;24.704;2022-07-29T12:47:58;3.05;;;2.85;;
45714;SDS011;31430;61.646;24.704;2022-07-29T12:50:24;3.05;;;2.85;;
45714;SDS011;31430;61.646;24.704;2022-07-29T12:52:50;3.08;;;2.88;;
45714;SDS011;31430;61.646;24.704;2022-07-29T12:55:16;3.03;;;2.83;;
45714;SDS011;31430;61.646;24.704;2022-07-29T12:58:04;3.00;;;2.80;;
45714;SDS011;31430;61.646;24.704;2022-07-29T13:00:29;3.00;;;2.80;;
45714;SDS011;31430;61.646;24.704;2022-07-29T13:02:56;3.00;;;2.80;;
45714;SDS011;31430;61.646;24.704;2022-07-29T13:05:23;3.03;;;2.83;;
45714;SDS011;31430;61.646;24.704;2022-07-29T13:08:10;3.00;;;2.80;;
45714;SDS011;31430;61.646;24.704;2022-07-29T13:10:40;3.00;;;2.80;;
45714;SDS011;31430;61.646;24.704;2022-07-29T13:15:40;3.03;;;2.83;;
45714;SDS011;31430;61.646;24.704;2022-07-29T13:20:55;3.20;;;3.00;;
45714;SDS011;31430;61.646;24.704;2022-07-29T13:25:47;3.17;;;2.97;;
45714;SDS011;31430;61.646;24.704;2022-07-29T13:30:41;3.20;;;3.00;;
45714;SDS011;31430;61.646;24.704;2022-07-29T13:33:07;3.15;;;2.95;;
45714;SDS011;31430;61.646;24.704;2022-07-29T13:35:33;3.25;;;3.05;;
45714;SDS011;31430;61.646;24.704;2022-07-29T13:37:59;3.13;;;2.92;;
45714;SDS011;31430;61.646;24.704;2022-07-29T13:40:24;3.13;;;2.92;;
45714;SDS011;31430;61.646;24.704;2022-07-29T13:45:16;3.63;;;3.33;;
45714;SDS011;31430;61.646;24.704;2022-07-29T13:47:42;3.30;;;3.10;;
45714;SDS011;31430;61.646;24.704;2022-07-29T13:50:08;3.15;;;2.95;;
45714;SDS011;31430;61.646;24.704;2022-07-29T13:52:35;3.08;;;2.88;;
45714;SDS011;31430;61.646;24.704;2022-07-29T13:55:03;3.10;;;2.90;;
45714;SDS011;31430;61.646;24.704;2022-07-29T13:57:29;3.13;;;2.92;;
45714;SDS011;31430;61.646;24.704;2022-07-29T13:59:55;3.08;;;2.88;;
45714;SDS011;31430;61.646;24.704;2022-07-29T14:04:46;3.15;;;2.95;;
45714;SDS011;31430;61.646;24.704;2022-07-29T14:07:12;3.22;;;3.03;;
45714;SDS011;31430;61.646;24.704;2022-07-29T14:09:38;3.20;;;3.00;;
45714;SDS011;31430;61.646;24.704;2022-07-29T14:12:04;2.97;;;2.78;;
45714;SDS011;31430;61.646;24.704;2022-07-29T14:14:30;3.05;;;2.85;;
45714;SDS011;31430;61.646;24.704;2022-07-29T14:16:57;3.00;;;2.80;;
45714;SDS011;31430;61.646;24.704;2022-07-29T14:21:48;3.40;;;3.13;;
45714;SDS011;31430;61.646;24.704;2022-07-29T14:24:14;3.08;;;2.88;;
45714;SDS011;31430;61.646;24.704;2022-07-29T14:26:40;3.17;;;2.97;;
45714;SDS011;31430;61.646;24.704;2022-07-29T14:29:05;3.10;;;2.90;;
45714;SDS011;31430;61.646;24.704;2022-07-29T14:33:57;3.25;;;3.05;;
45714;SDS011;31430;61.646;24.704;2022-07-29T14:36:23;3.30;;;3.10;;
45714;SDS011;31430;61.646;24.704;2022-07-29T14:38:48;3.15;;;2.95;;
45714;SDS011;31430;61.646;24.704;2022-07-29T14:41:14;3.13;;;2.92;;
45714;SDS011;31430;61.646;24.704;2022-07-29T14:43:40;3.05;;;2.85;;
45714;SDS011;31430;61.646;24.704;2022-07-29T14:46:06;3.05;;;2.85;;
45714;SDS011;31430;61.646;24.704;2022-07-29T14:48:32;3.10;;;2.90;;
45714;SDS011;31430;61.646;24.704;2022-07-29T14:50:58;3.10;;;2.90;;
45714;SDS011;31430;61.646;24.704;2022-07-29T14:53:24;3.08;;;2.88;;
45714;SDS011;31430;61.646;24.704;2022-07-29T14:55:50;3.10;;;2.90;;
45714;SDS011;31430;61.646;24.704;2022-07-29T14:58:15;3.20;;;3.00;;
45714;SDS011;31430;61.646;24.704;2022-07-29T15:00:41;2.90;;;2.70;;
45714;SDS011;31430;61.646;24.704;2022-07-29T15:03:07;3.05;;;2.85;;
45714;SDS011;31430;61.646;24.704;2022-07-29T15:05:35;2.95;;;2.75;;
45714;SDS011;31430;61.646;24.704;2022-07-29T15:08:01;3.45;;;3.15;;
45714;SDS011;31430;61.646;24.704;2022-07-29T15:10:27;3.10;;;2.90;;
45714;SDS011;31430;61.646;24.704;2022-07-29T15:12:53;2.80;;;2.60;;
45714;SDS011;31430;61.646;24.704;2022-07-29T15:15:19;3.10;;;2.90;;
45714;SDS011;31430;61.646;24.704;2022-07-29T15:17:45;3.15;;;2.95;;
45714;SDS011;31430;61.646;24.704;2022-07-29T15:20:11;2.85;;;2.65;;
45714;SDS011;31430;61.646;24.704;2022-07-29T15:22:37;3.00;;;2.80;;
45714;SDS011;31430;61.646;24.704;2022-07-29T15:25:03;2.92;;;2.72;;
45714;SDS011;31430;61.646;24.704;2022-07-29T15:27:30;2.95;;;2.75;;
45714;SDS011;31430;61.646;24.704;2022-07-29T15:29:55;3.05;;;2.85;;
45714;SDS011;31430;61.646;24.704;2022-07-29T15:32:22;2.92;;;2.72;;
45714;SDS011;31430;61.646;24.704;2022-07-29T15:37:13;3.15;;;2.95;;
45714;SDS011;31430;61.646;24.704;2022-07-29T15:39:39;3.08;;;2.88;;
45714;SDS011;31430;61.646;24.704;2022-07-29T15:42:05;3.20;;;3.00;;
45714;SDS011;31430;61.646;24.704;2022-07-29T15:44:31;3.08;;;2.88;;
45714;SDS011;31430;61.646;24.704;2022-07-29T15:46:57;3.13;;;2.92;;
45714;SDS011;31430;61.646;24.704;2022-07-29T15:51:59;3.10;;;2.90;;
45714;SDS011;31430;61.646;24.704;2022-07-29T15:54:31;3.28;;;3.08;;
45714;SDS011;31430;61.646;24.704;2022-07-29T15:56:57;3.15;;;2.95;;
45714;SDS011;31430;61.646;24.704;2022-07-29T15:59:23;3.50;;;3.20;;
45714;SDS011;31430;61.646;24.704;2022-07-29T16:01:50;3.15;;;2.95;;
45714;SDS011;31430;61.646;24.704;2022-07-29T16:04:16;3.10;;;2.90;;
45714;SDS011;31430;61.646;24.704;2022-07-29T16:06:42;3.08;;;2.88;;
45714;SDS011;31430;61.646;24.704;2022-07-29T16:09:08;3.00;;;2.80;;
45714;SDS011;31430;61.646;24.704;2022-07-29T16:11:34;3.20;;;3.00;;
45714;SDS011;31430;61.646;24.704;2022-07-29T16:14:00;3.03;;;2.83;;
45714;SDS011;31430;61.646;24.704;2022-07-29T16:16:26;3.17;;;2.97;;
45714;SDS011;31430;61.646;24.704;2022-07-29T16:18:52;3.03;;;2.83;;